Time;durP1;ratioP1;P1;durP2;ratioP2;P2;SDS_P1;SDS_P2;PMS_P1;PMS_P2;Temp;Humidity;BMP_temperature;BMP_pressure;BME280_temperature;BME280_humidity;BME280_pressure;Samples;Min_cycle;Max_cycle;Signal;HPM_P1;HPM_P2
2022/01/23 00:03:00;;;;;;;57.60;36.47;;;2.60;82.00;;;;;;10756682;33;20071;-73
2022/01/23 00:09:02;;;;;;;53.92;35.15;;;2.50;82.30;;;;;;10756863;33;20016;-74
2022/01/23 00:21:25;;;;;;;50.15;34.88;;;2.50;82.10;;;;;;10756548;33;20024;-74
2022/01/23 00:33:48;;;;;;;46.85;31.58;;;2.60;81.70;;;;;;10751999;33;20033;-74
2022/01/23 00:39:50;;;;;;;70.60;46.97;;;2.50;81.80;;;;;;10755935;33;20058;-74
2022/01/23 00:46:07;;;;;;;48.22;36.75;;;2.60;81.70;;;;;;10755862;32;20082;-74
2022/01/23 00:52:10;;;;;;;76.85;51.08;;;2.60;81.90;;;;;;10755785;33;20051;-74
2022/01/23 00:58:14;;;;;;;66.47;43.85;;;2.70;81.90;;;;;;10755359;33;20020;-73
2022/01/23 01:04:16;;;;;;;77.82;50.75;;;2.70;81.90;;;;;;10804359;32;20032;-73
2022/01/23 01:10:24;;;;;;;76.80;47.35;;;2.70;82.10;;;;;;10754019;33;20055;-73
2022/01/23 01:16:57;;;;;;;60.17;43.17;;;2.70;82.10;;;;;;10750901;33;20036;-73
2022/01/23 01:35:53;;;;;;;72.45;48.90;;;2.60;81.60;;;;;;10755467;33;20393;-73
2022/01/23 01:41:56;;;;;;;69.78;54.28;;;2.60;81.50;;;;;;10758595;27;20066;-73
2022/01/23 01:48:01;;;;;;;59.75;41.45;;;2.60;81.60;;;;;;10749830;33;20082;-74
2022/01/23 01:54:11;;;;;;;71.47;43.40;;;2.60;81.80;;;;;;10803817;32;20334;-73
2022/01/23 02:00:36;;;;;;;65.05;37.65;;;2.60;82.10;;;;;;10753648;33;20055;-73
2022/01/23 02:13:18;;;;;;;65.35;43.72;;;2.60;82.50;;;;;;10792247;32;20175;-74
2022/01/23 02:51:28;;;;;;;45.97;31.35;;;2.50;82.40;;;;;;10752445;33;20025;-72
2022/01/23 03:03:48;;;;;;;59.15;41.65;;;2.40;82.20;;;;;;10751896;33;20028;-74
2022/01/23 03:10:00;;;;;;;54.15;35.85;;;2.60;82.40;;;;;;10813685;32;20032;-73
2022/01/23 03:35:05;;;;;;;59.72;35.92;;;2.60;82.40;;;;;;10755699;33;20047;-73
2022/01/23 03:41:07;;;;;;;49.35;32.28;;;2.60;82.10;;;;;;10757558;33;20025;-72
2022/01/23 03:47:20;;;;;;;41.58;29.80;;;2.60;82.10;;;;;;10753926;33;20064;-72
2022/01/23 03:53:23;;;;;;;44.15;28.62;;;2.60;82.00;;;;;;10757326;33;20054;-72
2022/01/23 03:59:27;;;;;;;43.22;28.08;;;2.50;82.00;;;;;;10807565;32;20033;-72
2022/01/23 04:05:29;;;;;;;40.47;25.92;;;2.40;82.00;;;;;;10756867;33;20025;-72
2022/01/23 04:11:32;;;;;;;35.28;25.25;;;2.40;82.00;;;;;;10756832;33;20392;-72
2022/01/23 05:02:28;;;;;;;55.38;36.17;;;2.40;82.30;;;;;;10755213;33;20306;-72
2022/01/23 05:08:36;;;;;;;44.22;29.27;;;2.50;82.30;;;;;;10755267;33;20036;-73
2022/01/23 05:14:46;;;;;;;41.25;26.70;;;2.50;82.30;;;;;;10754972;33;20051;-72
2022/01/23 05:20:58;;;;;;;43.40;28.92;;;2.50;82.40;;;;;;10804143;32;20337;-73
2022/01/23 05:27:02;;;;;;;43.60;29.98;;;2.40;82.70;;;;;;10754488;33;20068;-73
2022/01/23 05:33:04;;;;;;;49.17;30.25;;;2.50;82.90;;;;;;10754445;33;20334;-73
2022/01/23 05:39:06;;;;;;;37.97;27.25;;;2.60;83.00;;;;;;10753523;33;20052;-73
2022/01/23 05:45:09;;;;;;;42.53;28.65;;;2.60;83.00;;;;;;10750135;33;20055;-73
2022/01/23 05:51:15;;;;;;;46.28;32.03;;;2.60;83.00;;;;;;10753987;33;20357;-73
2022/01/23 05:57:18;;;;;;;44.55;29.17;;;2.60;83.10;;;;;;10751878;33;20050;-73
2022/01/23 06:03:21;;;;;;;35.78;24.67;;;2.60;83.30;;;;;;10753591;33;20189;-73
2022/01/23 06:09:25;;;;;;;34.60;20.77;;;2.60;83.40;;;;;;10750235;33;20056;-73
2022/01/23 06:15:27;;;;;;;41.40;25.40;;;2.60;83.50;;;;;;10753226;33;20055;-72
2022/01/23 06:21:29;;;;;;;36.05;22.40;;;2.60;83.50;;;;;;10751924;33;20024;-72
2022/01/23 06:28:42;;;;;;;38.67;25.73;;;2.50;83.60;;;;;;10752743;33;20032;-71
2022/01/23 06:34:59;;;;;;;26.80;17.98;;;2.50;83.90;;;;;;10752609;33;20017;-71
2022/01/23 06:41:04;;;;;;;29.05;17.20;;;2.60;84.10;;;;;;10752412;33;20024;-71
2022/01/23 06:47:07;;;;;;;27.80;18.55;;;2.60;84.10;;;;;;10752303;33;20063;-71
2022/01/23 06:53:10;;;;;;;31.45;23.65;;;2.60;83.80;;;;;;10752151;33;20436;-71
2022/01/23 06:59:39;;;;;;;25.60;15.73;;;2.60;83.90;;;;;;10751449;33;20025;-70
2022/01/23 07:05:43;;;;;;;26.98;18.12;;;2.70;83.70;;;;;;10801025;32;20040;-70
2022/01/23 07:11:46;;;;;;;32.78;23.95;;;2.70;83.70;;;;;;10751763;33;20025;-71
2022/01/23 07:17:51;;;;;;;36.65;22.35;;;2.80;83.60;;;;;;10751516;33;20070;-71
2022/01/23 07:23:57;;;;;;;43.05;27.83;;;2.70;83.70;;;;;;10751357;33;20329;-71
2022/01/23 07:29:59;;;;;;;32.03;22.98;;;2.80;83.90;;;;;;10749554;33;20051;-72
2022/01/23 07:36:02;;;;;;;35.95;22.20;;;2.80;83.90;;;;;;10751339;33;20056;-71
2022/01/23 07:42:07;;;;;;;31.58;22.23;;;2.90;84.00;;;;;;10751014;33;20024;-71
2022/01/23 07:48:29;;;;;;;16.75;12.02;;;2.80;84.20;;;;;;10800278;32;20095;-72
2022/01/23 07:54:32;;;;;;;25.00;16.23;;;2.80;84.20;;;;;;10750705;33;20051;-72
2022/01/23 08:00:35;;;;;;;34.45;23.75;;;2.80;84.20;;;;;;10746375;33;20020;-74
2022/01/23 08:07:30;;;;;;;27.87;18.23;;;2.90;84.00;;;;;;10748087;33;20037;-71
2022/01/23 08:14:01;;;;;;;29.92;20.20;;;2.90;84.00;;;;;;10746315;33;20029;-72
2022/01/23 08:20:04;;;;;;;23.75;17.37;;;2.90;84.10;;;;;;10752893;33;20033;-72
2022/01/23 08:26:08;;;;;;;22.33;15.20;;;3.00;84.10;;;;;;10806595;32;20407;-72
2022/01/23 08:32:11;;;;;;;39.60;23.55;;;3.10;84.10;;;;;;10752370;33;20184;-72
2022/01/23 08:38:14;;;;;;;29.00;22.60;;;3.20;84.00;;;;;;10756019;33;20021;-72
2022/01/23 08:44:27;;;;;;;26.10;16.25;;;3.30;83.90;;;;;;10806230;32;20024;-72
2022/01/23 08:50:32;;;;;;;26.40;19.23;;;3.50;83.80;;;;;;10755448;33;20028;-71
2022/01/23 08:56:34;;;;;;;31.77;20.35;;;3.50;83.80;;;;;;10755530;33;20028;-72
2022/01/23 09:02:36;;;;;;;24.17;15.50;;;3.60;83.60;;;;;;10803296;32;20043;-72
2022/01/23 09:08:40;;;;;;;27.35;15.18;;;3.70;83.60;;;;;;10755042;33;20405;-71
2022/01/23 09:14:42;;;;;;;33.08;20.08;;;3.70;83.60;;;;;;10754953;33;20398;-71
2022/01/23 09:20:45;;;;;;;27.87;18.05;;;3.70;83.40;;;;;;10754880;33;20330;-72
2022/01/23 09:26:53;;;;;;;27.67;18.75;;;3.80;83.40;;;;;;10754163;33;20353;-72
2022/01/23 09:32:55;;;;;;;28.92;18.65;;;3.90;83.30;;;;;;10753477;33;20020;-72
2022/01/23 09:38:57;;;;;;;38.95;22.55;;;4.00;83.20;;;;;;10753240;33;20341;-71
2022/01/23 09:45:04;;;;;;;30.83;20.85;;;4.10;83.20;;;;;;10338368;28;12117864;-71
2022/01/23 09:51:06;;;;;;;34.78;21.80;;;4.20;82.90;;;;;;10677102;33;20469;-71
2022/01/23 09:57:10;;;;;;;35.80;21.35;;;4.30;82.70;;;;;;10678152;33;20020;-71
2022/01/23 10:03:12;;;;;;;25.48;16.52;;;4.50;82.60;;;;;;10674176;33;20059;-72
2022/01/23 10:09:15;;;;;;;26.65;19.92;;;4.70;82.30;;;;;;10695706;33;20050;-72
2022/01/23 10:15:19;;;;;;;27.90;17.62;;;4.80;82.20;;;;;;10721930;32;20052;-71
2022/01/23 10:21:22;;;;;;;31.87;21.42;;;4.90;82.30;;;;;;10716724;33;20056;-71
2022/01/23 10:27:25;;;;;;;35.30;21.50;;;5.00;82.40;;;;;;10716392;33;20025;-72
2022/01/23 10:33:32;;;;;;;33.83;21.92;;;5.10;82.10;;;;;;10716602;33;20060;-72
2022/01/23 10:39:46;;;;;;;43.28;24.63;;;5.20;81.90;;;;;;10716072;33;20029;-71
2022/01/23 10:52:26;;;;;;;35.53;24.60;;;5.40;81.40;;;;;;10715955;33;20086;-72
2022/01/23 10:58:31;;;;;;;28.30;19.10;;;5.50;81.50;;;;;;10715562;33;20402;-71
2022/01/23 11:04:48;;;;;;;27.08;18.80;;;5.60;81.50;;;;;;10714911;33;20033;-72
2022/01/23 11:10:57;;;;;;;52.97;24.55;;;5.70;81.40;;;;;;10715497;33;20064;-71
2022/01/23 11:23:23;;;;;;;38.38;24.20;;;6.10;80.90;;;;;;10715271;32;20060;-71
2022/01/23 11:29:26;;;;;;;37.15;23.65;;;6.30;80.70;;;;;;10761941;32;20021;-71
2022/01/23 11:35:28;;;;;;;44.35;28.30;;;6.30;80.70;;;;;;10714903;33;20017;-71
2022/01/23 11:54:13;;;;;;;28.92;18.20;;;6.50;80.30;;;;;;10716114;33;20056;-71
2022/01/23 12:00:27;;;;;;;35.05;22.40;;;6.70;80.10;;;;;;10783136;32;20475;-71
2022/01/23 12:06:29;;;;;;;42.13;22.37;;;7.00;79.90;;;;;;10718632;33;20017;-71
2022/01/23 12:12:40;;;;;;;35.90;19.50;;;7.30;79.40;;;;;;10717373;33;20455;-71
2022/01/23 12:18:42;;;;;;;31.08;21.42;;;7.60;79.10;;;;;;10720461;33;20029;-71
2022/01/23 12:24:50;;;;;;;30.05;18.58;;;7.80;78.50;;;;;;10720112;33;20033;-71
2022/01/23 12:30:57;;;;;;;38.92;22.90;;;7.90;78.50;;;;;;10719581;33;20082;-72
2022/01/23 12:36:59;;;;;;;33.17;19.65;;;8.00;78.10;;;;;;10718837;33;20037;-72
2022/01/23 12:43:26;;;;;;;37.10;25.80;;;8.00;78.00;;;;;;10715480;33;20028;-72
2022/01/23 12:49:33;;;;;;;32.75;22.13;;;8.00;77.70;;;;;;10719496;33;20048;-72
2022/01/23 12:55:36;;;;;;;41.42;22.20;;;8.00;78.00;;;;;;10719360;33;20017;-72
2022/01/23 13:01:43;;;;;;;29.00;18.37;;;8.10;77.80;;;;;;10768897;32;20033;-72
2022/01/23 13:08:01;;;;;;;37.13;23.62;;;8.10;77.90;;;;;;10718618;33;20349;-72
2022/01/23 13:14:04;;;;;;;35.85;21.70;;;8.20;77.40;;;;;;10718700;33;20056;-72
2022/01/23 13:27:33;;;;;;;35.35;19.17;;;8.30;77.40;;;;;;10719451;33;20397;-72
2022/01/23 13:33:27;;;;;;;35.10;23.90;;;8.40;77.20;;;;;;10716309;33;20033;-72
2022/01/23 13:39:36;;;;;;;32.53;18.85;;;8.60;76.80;;;;;;10717945;33;20029;-71
2022/01/23 13:52:34;;;;;;;29.23;18.70;;;8.80;76.40;;;;;;10717608;33;20025;-72
2022/01/23 13:58:38;;;;;;;29.20;16.70;;;8.70;76.30;;;;;;10717579;33;20059;-72
2022/01/23 14:05:11;;;;;;;25.92;19.35;;;8.70;76.30;;;;;;10717226;33;20033;-72
2022/01/23 14:11:14;;;;;;;32.67;18.83;;;8.70;76.30;;;;;;10755006;33;20054;-72
2022/01/23 14:17:16;;;;;;;28.40;18.45;;;8.70;76.30;;;;;;10753781;33;20040;-72
2022/01/23 14:23:20;;;;;;;43.25;18.05;;;8.80;76.10;;;;;;10749766;33;20410;-72
2022/01/23 14:29:24;;;;;;;31.33;18.92;;;8.90;75.90;;;;;;10750955;33;20028;-72
2022/01/23 14:35:31;;;;;;;26.00;17.02;;;9.20;75.60;;;;;;10754786;33;20055;-72
2022/01/23 14:41:37;;;;;;;27.45;16.20;;;9.30;75.20;;;;;;10752287;33;20062;-72
2022/01/23 14:47:40;;;;;;;40.45;19.05;;;9.30;75.40;;;;;;10726033;33;20037;-72
2022/01/23 14:53:42;;;;;;;30.05;16.92;;;9.20;75.30;;;;;;10716036;33;20103;-73
2022/01/23 14:59:45;;;;;;;25.27;14.38;;;9.30;75.30;;;;;;10715738;33;20243;-72
2022/01/23 15:05:47;;;;;;;24.87;14.50;;;9.80;74.80;;;;;;10715613;33;20036;-73
2022/01/23 15:11:51;;;;;;;25.67;13.65;;;10.00;74.20;;;;;;10715633;33;20300;-72
2022/01/23 15:17:54;;;;;;;24.67;15.63;;;9.70;74.70;;;;;;10764550;32;20055;-72
2022/01/23 15:23:56;;;;;;;28.77;17.98;;;9.60;75.10;;;;;;10714629;33;20055;-72
2022/01/23 15:29:59;;;;;;;29.45;14.77;;;9.30;75.00;;;;;;10763662;32;20025;-72
2022/01/23 15:36:01;;;;;;;28.10;15.52;;;9.20;75.70;;;;;;10715043;33;20057;-72
2022/01/23 15:42:04;;;;;;;24.45;11.20;;;9.30;75.70;;;;;;10714720;33;20447;-72
2022/01/23 15:48:06;;;;;;;18.67;11.65;;;9.20;75.80;;;;;;10760510;32;20037;-71
2022/01/23 15:54:09;;;;;;;17.55;8.85;;;8.60;76.60;;;;;;10714548;33;20028;-72
2022/01/23 16:00:12;;;;;;;18.55;10.55;;;8.20;77.30;;;;;;10710552;33;20099;-72
2022/01/23 16:06:14;;;;;;;15.70;10.23;;;7.80;77.80;;;;;;10714401;33;20044;-71
2022/01/23 16:12:17;;;;;;;14.10;7.60;;;7.50;78.20;;;;;;10714355;33;20021;-71
2022/01/23 16:18:19;;;;;;;10.52;6.20;;;7.20;78.40;;;;;;10763404;32;20029;-71
2022/01/23 16:24:23;;;;;;;15.30;8.45;;;7.10;78.60;;;;;;10713920;33;20061;-71
2022/01/23 16:30:43;;;;;;;13.93;7.60;;;6.90;78.70;;;;;;10709834;33;20334;-71
2022/01/23 16:36:45;;;;;;;15.90;7.30;;;6.70;78.80;;;;;;10713627;33;20017;-71
2022/01/23 16:42:48;;;;;;;10.52;5.47;;;6.60;79.00;;;;;;10717674;32;20047;-71
2022/01/23 16:48:50;;;;;;;9.15;6.10;;;6.50;79.10;;;;;;10719482;33;20025;-71
2022/01/23 16:54:52;;;;;;;19.30;10.75;;;6.30;79.20;;;;;;10769351;32;20032;-71
2022/01/23 17:00:56;;;;;;;15.75;9.80;;;6.30;79.30;;;;;;10768744;32;20020;-72
2022/01/23 17:06:59;;;;;;;16.40;9.93;;;6.20;79.30;;;;;;10718243;33;20028;-72
2022/01/23 17:13:01;;;;;;;13.57;7.53;;;6.10;79.40;;;;;;10714772;33;20197;-72
2022/01/23 17:19:04;;;;;;;16.65;10.55;;;6.10;79.50;;;;;;10768467;32;20063;-72
2022/01/23 17:25:06;;;;;;;19.65;10.13;;;6.00;79.50;;;;;;10718443;33;20330;-73
2022/01/23 17:31:09;;;;;;;12.32;8.40;;;5.90;79.60;;;;;;10718508;33;20013;-72
2022/01/23 17:37:23;;;;;;;27.70;18.52;;;5.80;79.60;;;;;;10718333;32;20055;-72
2022/01/23 17:43:25;;;;;;;30.70;18.00;;;5.70;79.70;;;;;;10736694;27;20048;-72
2022/01/23 17:50:15;;;;;;;36.42;21.58;;;5.70;79.80;;;;;;10749147;33;20025;-73
2022/01/23 17:55:56;;;;;;;26.75;14.98;;;5.60;80.00;;;;;;10715774;32;20029;-72
2022/01/23 18:01:58;;;;;;;21.37;14.90;;;5.60;80.00;;;;;;10746550;33;20025;-72
2022/01/23 18:08:06;;;;;;;20.58;13.98;;;5.50;80.00;;;;;;10753578;33;20029;-72
2022/01/23 18:14:10;;;;;;;21.80;14.32;;;5.50;80.00;;;;;;10753594;33;20008;-72
2022/01/23 18:20:13;;;;;;;24.70;14.95;;;5.40;80.00;;;;;;10803277;32;20206;-72
2022/01/23 18:26:15;;;;;;;24.63;14.50;;;5.30;80.00;;;;;;10753026;33;20310;-71
2022/01/23 18:32:18;;;;;;;22.05;14.27;;;5.20;80.10;;;;;;10752848;33;20056;-71
2022/01/23 18:38:21;;;;;;;23.90;13.70;;;5.20;80.20;;;;;;10800741;32;20036;-71
2022/01/23 18:44:23;;;;;;;20.10;12.50;;;5.10;80.30;;;;;;10802457;32;20392;-71
2022/01/23 18:50:26;;;;;;;31.67;20.42;;;5.10;80.20;;;;;;10802427;32;20299;-71
2022/01/23 18:56:31;;;;;;;21.35;14.68;;;5.10;80.20;;;;;;10752174;33;20055;-71
2022/01/23 19:02:39;;;;;;;26.73;17.40;;;5.10;80.30;;;;;;10751988;33;20435;-71
2022/01/23 19:08:42;;;;;;;27.58;17.02;;;5.00;80.20;;;;;;10801836;32;20055;-71
2022/01/23 19:14:45;;;;;;;30.08;21.62;;;4.90;80.30;;;;;;10751728;33;20052;-72
2022/01/23 19:20:47;;;;;;;28.10;18.30;;;4.90;80.20;;;;;;10751527;33;20405;-72
2022/01/23 19:26:50;;;;;;;24.17;17.60;;;4.80;80.20;;;;;;10751515;33;20028;-72
2022/01/23 19:32:54;;;;;;;34.30;22.23;;;4.80;80.20;;;;;;10751515;33;20435;-72
2022/01/23 19:38:57;;;;;;;24.08;15.85;;;4.70;80.20;;;;;;10751258;33;20389;-72
2022/01/23 19:45:02;;;;;;;25.40;17.20;;;4.70;80.30;;;;;;10751041;33;20413;-72
2022/01/23 19:51:06;;;;;;;27.48;19.55;;;4.70;80.30;;;;;;10749439;33;20024;-72
2022/01/23 19:57:09;;;;;;;26.77;16.52;;;4.60;80.40;;;;;;10747537;33;20420;-72
2022/01/23 20:03:12;;;;;;;33.92;23.70;;;4.60;80.50;;;;;;10748072;33;20095;-72
2022/01/23 20:09:14;;;;;;;36.50;24.45;;;4.50;80.60;;;;;;10750639;33;20040;-72
2022/01/23 20:15:18;;;;;;;32.72;20.37;;;4.50;80.90;;;;;;10752854;33;20017;-72
2022/01/23 20:21:21;;;;;;;25.17;19.73;;;4.50;80.90;;;;;;10756702;33;20460;-71
2022/01/23 20:27:24;;;;;;;26.87;17.70;;;4.40;80.70;;;;;;10756363;33;20141;-72
2022/01/23 20:33:26;;;;;;;29.55;17.85;;;4.40;80.70;;;;;;10756282;33;20033;-72
2022/01/23 20:39:36;;;;;;;33.72;22.08;;;4.30;80.70;;;;;;10806424;32;20021;-72
2022/01/23 20:45:39;;;;;;;36.53;24.80;;;4.20;80.80;;;;;;10756054;33;20315;-72
2022/01/23 20:51:58;;;;;;;27.17;19.52;;;4.20;80.80;;;;;;10755747;33;20020;-72
2022/01/23 20:58:00;;;;;;;25.57;18.80;;;4.20;80.90;;;;;;10755808;33;20050;-72
2022/01/23 21:04:03;;;;;;;35.38;21.83;;;4.20;80.70;;;;;;10755478;33;20052;-71
2022/01/23 21:10:11;;;;;;;27.20;18.23;;;3.90;80.80;;;;;;10755387;33;20025;-72
2022/01/23 21:23:12;;;;;;;29.27;19.55;;;3.80;81.20;;;;;;10863669;32;20028;-71
2022/01/23 21:41:47;;;;;;;37.20;27.37;;;3.90;80.90;;;;;;10863187;32;20028;-71
2022/01/23 21:47:50;;;;;;;53.58;36.33;;;3.90;80.90;;;;;;10866252;32;20415;-71
2022/01/23 21:53:55;;;;;;;35.83;25.92;;;3.90;80.80;;;;;;10859412;32;20033;-71
2022/01/23 21:59:57;;;;;;;42.25;27.60;;;3.90;80.80;;;;;;10754043;33;20417;-71
2022/01/23 22:06:00;;;;;;;53.45;37.38;;;3.80;80.90;;;;;;10750878;33;20028;-71
2022/01/23 22:18:14;;;;;;;40.83;29.00;;;3.70;80.90;;;;;;10753438;33;20193;-71
2022/01/23 22:30:41;;;;;;;38.92;29.00;;;3.70;81.00;;;;;;10753130;33;20016;-72
2022/01/23 22:36:43;;;;;;;43.05;31.37;;;3.70;81.00;;;;;;10752572;33;20078;-70
2022/01/23 22:42:46;;;;;;;38.75;27.80;;;3.70;81.00;;;;;;10752714;33;20171;-71
2022/01/23 22:48:48;;;;;;;42.65;28.45;;;3.60;80.90;;;;;;10752165;33;20028;-71
2022/01/23 22:54:51;;;;;;;41.58;29.55;;;3.50;81.20;;;;;;10752328;33;20063;-71
2022/01/23 23:00:56;;;;;;;46.88;32.30;;;3.50;81.10;;;;;;10752283;33;20404;-71
2022/01/23 23:06:58;;;;;;;37.45;27.98;;;3.50;81.10;;;;;;10749370;33;20032;-71
2022/01/23 23:13:00;;;;;;;45.25;32.85;;;3.40;81.10;;;;;;10752029;33;20035;-72
2022/01/23 23:19:06;;;;;;;39.97;29.23;;;3.40;81.10;;;;;;10814454;32;20020;-71
2022/01/23 23:25:08;;;;;;;46.92;30.52;;;3.40;81.00;;;;;;10751586;33;20013;-72
2022/01/23 23:31:11;;;;;;;54.65;38.92;;;3.40;81.00;;;;;;10751592;33;20039;-72
2022/01/23 23:37:13;;;;;;;48.80;33.60;;;3.40;81.00;;;;;;10751357;33;20082;-72
2022/01/23 23:43:32;;;;;;;44.22;32.45;;;3.20;81.00;;;;;;10750599;33;20025;-72
2022/01/23 23:49:38;;;;;;;42.90;30.83;;;3.10;81.20;;;;;;10750929;33;20439;-70
2022/01/23 23:55:41;;;;;;;61.53;40.60;;;3.10;81.40;;;;;;10754956;33;20054;-71
